Time;durP1;ratioP1;P1;durP2;ratioP2;P2;SDS_P1;SDS_P2;PMS_P1;PMS_P2;Temp;Humidity;BMP_temperature;BMP_pressure;BME280_temperature;BME280_humidity;BME280_pressure;Samples;Min_cycle;Max_cycle;Signal;HPM_P1;HPM_P2
2023/09/16 00:01:21;;;;;;;436.20;422.73;;;;;;;;;;5024402;28;20252;-92
2023/09/16 00:03:47;;;;;;;429.98;416.73;;;;;;;;;;5019204;28;20222;-94
2023/09/16 00:06:14;;;;;;;436.10;422.25;;;;;;;;;;5026159;28;20263;-95
2023/09/16 00:08:42;;;;;;;429.85;416.30;;;;;;;;;;5029786;28;20189;-96
2023/09/16 00:11:10;;;;;;;421.02;407.92;;;;;;;;;;5042220;28;20200;-96
2023/09/16 00:13:36;;;;;;;418.80;405.70;;;;;;;;;;5035944;28;20486;-96
2023/09/16 00:16:02;;;;;;;429.40;416.05;;;;;;;;;;5028785;28;20915;-93
2023/09/16 00:18:28;;;;;;;405.25;392.88;;;;;;;;;;5016456;28;20213;-93
2023/09/16 00:20:55;;;;;;;425.08;411.58;;;;;;;;;;5011824;28;20213;-94
2023/09/16 00:23:21;;;;;;;431.42;417.90;;;;;;;;;;5022618;28;20213;-93
2023/09/16 00:25:48;;;;;;;409.00;396.27;;;;;;;;;;5014907;28;20243;-94
2023/09/16 00:28:14;;;;;;;403.58;391.23;;;;;;;;;;5016423;28;20708;-93
2023/09/16 00:30:44;;;;;;;404.20;391.77;;;;;;;;;;5025257;28;20188;-93
2023/09/16 00:33:11;;;;;;;410.25;397.38;;;;;;;;;;5026619;28;20213;-95
2023/09/16 00:35:37;;;;;;;402.45;389.88;;;;;;;;;;5021418;28;20249;-93
2023/09/16 00:38:03;;;;;;;420.38;406.55;;;;;;;;;;5026857;28;20233;-94
2023/09/16 00:40:29;;;;;;;408.90;395.95;;;;;;;;;;5024987;28;20193;-95
2023/09/16 00:42:55;;;;;;;413.85;401.02;;;;;;;;;;5015834;28;20579;-93
2023/09/16 00:45:21;;;;;;;418.70;405.70;;;;;;;;;;5025774;28;20193;-95
2023/09/16 00:47:48;;;;;;;420.25;407.17;;;;;;;;;;5024557;28;20905;-95
2023/09/16 00:50:17;;;;;;;401.75;389.48;;;;;;;;;;5008461;28;20212;-95
2023/09/16 00:52:45;;;;;;;380.90;369.25;;;;;;;;;;5021533;28;20204;-94
2023/09/16 00:55:12;;;;;;;392.45;380.45;;;;;;;;;;5028181;28;20197;-94
2023/09/16 00:57:40;;;;;;;395.30;382.83;;;;;;;;;;5027045;28;20201;-96
2023/09/16 01:00:08;;;;;;;380.95;369.42;;;;;;;;;;5037447;28;20208;-96
2023/09/16 01:02:35;;;;;;;387.52;375.60;;;;;;;;;;5038831;28;20228;-95
2023/09/16 01:05:03;;;;;;;388.60;376.58;;;;;;;;;;5026534;28;20257;-96
2023/09/16 01:07:29;;;;;;;391.75;379.73;;;;;;;;;;5036690;28;20208;-94
2023/09/16 01:09:56;;;;;;;388.00;375.80;;;;;;;;;;5033268;28;20209;-93
2023/09/16 01:12:24;;;;;;;386.58;374.60;;;;;;;;;;5032550;28;20197;-95
2023/09/16 01:14:50;;;;;;;387.83;376.15;;;;;;;;;;5019733;28;20320;-95
2023/09/16 01:17:26;;;;;;;397.50;385.33;;;;;;;;;;5014609;28;20228;-94
2023/09/16 01:19:56;;;;;;;365.00;353.85;;;;;;;;;;5020784;28;20215;-94
2023/09/16 01:22:23;;;;;;;395.83;383.75;;;;;;;;;;5012904;28;20212;-94
2023/09/16 01:24:52;;;;;;;385.20;373.27;;;;;;;;;;5016886;28;20199;-94
2023/09/16 01:27:18;;;;;;;379.52;367.88;;;;;;;;;;5017521;28;20257;-91
2023/09/16 01:29:44;;;;;;;382.38;370.40;;;;;;;;;;5022644;28;20314;-92
2023/09/16 01:32:11;;;;;;;374.90;363.42;;;;;;;;;;5016177;28;20196;-92
2023/09/16 01:34:42;;;;;;;400.48;388.08;;;;;;;;;;5021572;28;20207;-94
2023/09/16 01:37:12;;;;;;;391.98;379.85;;;;;;;;;;5005487;28;20198;-93
2023/09/16 01:39:39;;;;;;;389.45;377.33;;;;;;;;;;5015982;28;20223;-94
2023/09/16 01:42:06;;;;;;;374.60;363.17;;;;;;;;;;5017317;28;20196;-94
2023/09/16 01:44:32;;;;;;;367.10;355.83;;;;;;;;;;5021341;28;20358;-92
2023/09/16 01:46:58;;;;;;;386.35;374.15;;;;;;;;;;5023657;28;20212;-94
2023/09/16 01:49:25;;;;;;;379.75;368.13;;;;;;;;;;5014469;28;20271;-93
2023/09/16 01:51:51;;;;;;;374.38;362.83;;;;;;;;;;5017967;28;20185;-93
2023/09/16 01:54:17;;;;;;;389.45;377.38;;;;;;;;;;5021921;28;20270;-93
2023/09/16 01:56:45;;;;;;;359.20;347.85;;;;;;;;;;5024025;28;20508;-95
2023/09/16 01:59:11;;;;;;;379.10;367.48;;;;;;;;;;5023138;28;20199;-91
2023/09/16 02:01:37;;;;;;;388.65;376.67;;;;;;;;;;5024045;28;20187;-93
2023/09/16 02:04:03;;;;;;;371.37;360.03;;;;;;;;;;5012781;28;20228;-93
2023/09/16 02:06:31;;;;;;;378.37;367.07;;;;;;;;;;5014932;28;20193;-93
2023/09/16 02:08:58;;;;;;;384.70;372.90;;;;;;;;;;5013225;28;20277;-93
2023/09/16 02:11:24;;;;;;;362.52;351.15;;;;;;;;;;5022066;28;20188;-92
2023/09/16 02:13:50;;;;;;;368.17;357.08;;;;;;;;;;5016909;28;20173;-94
2023/09/16 02:16:16;;;;;;;366.55;355.13;;;;;;;;;;5034269;28;20262;-94
2023/09/16 02:18:42;;;;;;;359.75;348.67;;;;;;;;;;5018154;28;20217;-93
2023/09/16 02:21:08;;;;;;;368.30;357.23;;;;;;;;;;5015967;28;20192;-93
2023/09/16 02:23:34;;;;;;;371.95;360.75;;;;;;;;;;5020290;28;20251;-94
2023/09/16 02:26:01;;;;;;;366.80;355.77;;;;;;;;;;5021674;28;20192;-93
2023/09/16 02:28:27;;;;;;;362.20;350.88;;;;;;;;;;5022391;28;20234;-92
2023/09/16 02:30:53;;;;;;;361.52;350.20;;;;;;;;;;5014326;28;20204;-94
2023/09/16 02:33:20;;;;;;;354.27;343.17;;;;;;;;;;5016897;28;20200;-95
2023/09/16 02:35:47;;;;;;;369.05;357.83;;;;;;;;;;5019430;28;20199;-94
2023/09/16 02:38:13;;;;;;;352.73;341.88;;;;;;;;;;5019299;28;20702;-94
2023/09/16 02:40:42;;;;;;;364.20;352.90;;;;;;;;;;5014456;28;20231;-96
2023/09/16 02:43:09;;;;;;;355.30;344.13;;;;;;;;;;5014946;28;20221;-92
2023/09/16 02:45:39;;;;;;;359.05;348.25;;;;;;;;;;5014043;28;20665;-95
2023/09/16 02:48:05;;;;;;;345.63;335.25;;;;;;;;;;5016850;28;20762;-94
2023/09/16 02:50:35;;;;;;;356.05;345.10;;;;;;;;;;5013636;28;20274;-94
2023/09/16 02:53:01;;;;;;;344.38;334.05;;;;;;;;;;5007648;28;20252;-94
2023/09/16 02:55:28;;;;;;;349.73;338.95;;;;;;;;;;5016412;28;20183;-92
2023/09/16 02:57:54;;;;;;;359.42;348.27;;;;;;;;;;5021065;28;20299;-94
2023/09/16 03:00:20;;;;;;;368.53;357.00;;;;;;;;;;5020702;28;20207;-93
2023/09/16 03:02:49;;;;;;;346.40;335.67;;;;;;;;;;5011852;28;20262;-93
2023/09/16 03:05:16;;;;;;;360.70;349.77;;;;;;;;;;5013761;28;20213;-91
2023/09/16 03:07:42;;;;;;;339.67;329.35;;;;;;;;;;5021333;28;20311;-92
2023/09/16 03:10:08;;;;;;;340.27;330.05;;;;;;;;;;5016166;28;20197;-93
2023/09/16 03:12:34;;;;;;;337.65;327.35;;;;;;;;;;5019323;28;20196;-94
2023/09/16 03:15:00;;;;;;;333.70;323.57;;;;;;;;;;5013489;28;20188;-93
2023/09/16 03:17:26;;;;;;;324.25;314.58;;;;;;;;;;5021523;28;20195;-93
2023/09/16 03:19:53;;;;;;;324.80;315.05;;;;;;;;;;5020258;28;20209;-95
2023/09/16 03:22:19;;;;;;;335.40;325.23;;;;;;;;;;5013952;28;20194;-96
2023/09/16 03:24:45;;;;;;;324.50;314.55;;;;;;;;;;5020223;28;20229;-93
2023/09/16 03:27:11;;;;;;;338.55;328.30;;;;;;;;;;5020063;28;20185;-95
2023/09/16 03:29:37;;;;;;;340.07;329.77;;;;;;;;;;5018997;28;20210;-93
2023/09/16 03:32:03;;;;;;;333.58;323.33;;;;;;;;;;5017833;28;20220;-94
2023/09/16 03:34:29;;;;;;;334.67;324.57;;;;;;;;;;5019308;28;20189;-93
2023/09/16 03:36:55;;;;;;;336.03;325.83;;;;;;;;;;5017045;28;20219;-92
2023/09/16 03:39:21;;;;;;;330.53;320.53;;;;;;;;;;5019174;28;20332;-94
2023/09/16 03:41:47;;;;;;;332.40;322.35;;;;;;;;;;5016733;28;20640;-93
2023/09/16 03:44:14;;;;;;;338.77;328.67;;;;;;;;;;5007531;28;20228;-93
2023/09/16 03:46:40;;;;;;;331.75;321.67;;;;;;;;;;5018213;28;20190;-92
2023/09/16 03:49:06;;;;;;;342.10;331.70;;;;;;;;;;5017397;28;20280;-94
2023/09/16 03:51:34;;;;;;;327.70;317.80;;;;;;;;;;5013896;28;20184;-94
2023/09/16 03:54:00;;;;;;;324.90;314.87;;;;;;;;;;5020877;28;20194;-93
2023/09/16 03:56:26;;;;;;;342.40;331.87;;;;;;;;;;5020572;28;20282;-92
2023/09/16 03:58:52;;;;;;;342.47;332.17;;;;;;;;;;5020892;28;20240;-93
2023/09/16 04:01:18;;;;;;;328.13;317.87;;;;;;;;;;5021310;28;20242;-93
2023/09/16 04:03:44;;;;;;;346.93;336.27;;;;;;;;;;5020212;28;20199;-93
2023/09/16 04:06:10;;;;;;;352.57;341.37;;;;;;;;;;5021079;28;20221;-94
2023/09/16 04:08:36;;;;;;;331.83;321.67;;;;;;;;;;5006478;28;20268;-96
2023/09/16 04:11:02;;;;;;;333.70;323.53;;;;;;;;;;5027597;28;20180;-96
2023/09/16 04:13:29;;;;;;;307.17;297.83;;;;;;;;;;5027162;28;20212;-94
2023/09/16 04:15:55;;;;;;;333.53;323.53;;;;;;;;;;5017460;28;20191;-95
2023/09/16 04:18:21;;;;;;;343.53;332.87;;;;;;;;;;5032698;28;20201;-95
2023/09/16 04:20:48;;;;;;;324.00;314.33;;;;;;;;;;5022256;28;20171;-94
2023/09/16 04:23:14;;;;;;;328.50;318.70;;;;;;;;;;5029361;28;20218;-95
2023/09/16 04:25:40;;;;;;;320.47;310.57;;;;;;;;;;5017833;28;20266;-95
2023/09/16 04:28:06;;;;;;;299.20;290.33;;;;;;;;;;5021975;28;20236;-93
2023/09/16 04:30:32;;;;;;;312.57;303.33;;;;;;;;;;5019738;28;20241;-93
2023/09/16 04:32:57;;;;;;;327.60;317.60;;;;;;;;;;5009651;28;20228;-93
2023/09/16 04:35:23;;;;;;;312.67;303.37;;;;;;;;;;5020515;28;20200;-94
2023/09/16 04:37:49;;;;;;;302.17;293.27;;;;;;;;;;5015232;28;20564;-91
2023/09/16 04:40:15;;;;;;;305.63;296.13;;;;;;;;;;5010129;28;20193;-94
2023/09/16 04:42:41;;;;;;;311.23;301.77;;;;;;;;;;5023683;28;20258;-93
2023/09/16 04:45:08;;;;;;;305.93;296.77;;;;;;;;;;5025291;28;20166;-94
2023/09/16 04:47:34;;;;;;;308.27;298.73;;;;;;;;;;5029601;28;20201;-94
2023/09/16 04:50:00;;;;;;;305.77;296.67;;;;;;;;;;5045468;28;20185;-93
2023/09/16 04:52:27;;;;;;;313.77;304.23;;;;;;;;;;5026883;28;20194;-92
2023/09/16 04:54:54;;;;;;;308.60;299.47;;;;;;;;;;5020477;28;20197;-95
2023/09/16 04:57:20;;;;;;;322.50;312.67;;;;;;;;;;5016073;28;20241;-95
2023/09/16 04:59:47;;;;;;;322.47;312.53;;;;;;;;;;5024322;28;20247;-93
2023/09/16 05:02:13;;;;;;;309.47;300.27;;;;;;;;;;5025206;28;20207;-95
2023/09/16 05:04:39;;;;;;;323.73;314.03;;;;;;;;;;5019820;28;20293;-94
2023/09/16 05:07:05;;;;;;;324.60;314.97;;;;;;;;;;5020647;28;20196;-93
2023/09/16 05:09:31;;;;;;;307.20;298.07;;;;;;;;;;5016222;28;20206;-93
2023/09/16 05:11:58;;;;;;;314.27;304.90;;;;;;;;;;5021912;28;20195;-92
2023/09/16 05:14:24;;;;;;;297.40;288.60;;;;;;;;;;5022630;28;20189;-92
2023/09/16 05:16:50;;;;;;;308.77;299.60;;;;;;;;;;5025033;28;20286;-94
2023/09/16 05:19:16;;;;;;;307.20;298.03;;;;;;;;;;5017540;28;20215;-94
2023/09/16 05:21:43;;;;;;;304.90;295.80;;;;;;;;;;5013538;28;20188;-95
2023/09/16 05:24:09;;;;;;;296.43;287.60;;;;;;;;;;5022839;28;20208;-94
2023/09/16 05:26:35;;;;;;;305.70;296.43;;;;;;;;;;5023865;28;20189;-92
2023/09/16 05:29:01;;;;;;;306.20;297.17;;;;;;;;;;5022743;28;20214;-94
2023/09/16 05:31:27;;;;;;;295.30;286.57;;;;;;;;;;5022388;28;20186;-93
2023/09/16 05:33:53;;;;;;;310.27;300.87;;;;;;;;;;5015638;28;20194;-92
2023/09/16 05:36:24;;;;;;;304.87;295.87;;;;;;;;;;5023830;28;20192;-95
2023/09/16 05:38:50;;;;;;;300.37;291.50;;;;;;;;;;5023408;28;20304;-92
2023/09/16 05:41:16;;;;;;;309.17;299.53;;;;;;;;;;5022909;28;20244;-93
2023/09/16 05:43:42;;;;;;;295.27;285.80;;;;;;;;;;5023259;28;20244;-93
2023/09/16 05:46:08;;;;;;;307.30;297.90;;;;;;;;;;5024384;28;20200;-93
2023/09/16 05:48:34;;;;;;;307.37;298.00;;;;;;;;;;5015166;28;20351;-93
2023/09/16 05:51:02;;;;;;;289.57;280.50;;;;;;;;;;5024716;28;20237;-93
2023/09/16 05:53:28;;;;;;;298.77;289.70;;;;;;;;;;5018862;28;20635;-94
2023/09/16 05:55:54;;;;;;;304.47;294.27;;;;;;;;;;5018650;28;20224;-93
2023/09/16 05:58:20;;;;;;;306.77;297.47;;;;;;;;;;5020454;28;20201;-93
2023/09/16 06:00:56;;;;;;;297.47;288.60;;;;;;;;;;5018616;28;20200;-90
2023/09/16 06:03:22;;;;;;;303.53;293.97;;;;;;;;;;5020538;28;20649;-93
2023/09/16 06:05:48;;;;;;;278.53;270.23;;;;;;;;;;5008657;28;20296;-92
2023/09/16 06:08:14;;;;;;;278.87;270.50;;;;;;;;;;5021313;28;20209;-91
2023/09/16 06:10:40;;;;;;;290.87;282.03;;;;;;;;;;5027704;28;20186;-94
2023/09/16 06:13:06;;;;;;;283.53;274.97;;;;;;;;;;5028790;28;20207;-92
2023/09/16 06:15:35;;;;;;;297.97;289.07;;;;;;;;;;5031874;28;20215;-96
2023/09/16 06:18:05;;;;;;;291.53;282.80;;;;;;;;;;5034373;28;20212;-96
2023/09/16 06:20:31;;;;;;;332.87;321.77;;;;;;;;;;5033512;28;20174;-96
2023/09/16 06:23:02;;;;;;;293.77;284.47;;;;;;;;;;5020681;28;20749;-96
2023/09/16 06:25:28;;;;;;;267.87;259.77;;;;;;;;;;5032097;28;20196;-95
2023/09/16 06:27:54;;;;;;;282.30;273.43;;;;;;;;;;5028894;28;20201;-95
2023/09/16 06:30:22;;;;;;;278.00;269.40;;;;;;;;;;5035743;28;20179;-95
2023/09/16 06:32:48;;;;;;;282.67;273.90;;;;;;;;;;5025846;28;20238;-96
2023/09/16 06:35:14;;;;;;;296.23;287.13;;;;;;;;;;5024124;28;20195;-96
2023/09/16 06:37:40;;;;;;;295.67;286.90;;;;;;;;;;5029871;28;20190;-96
2023/09/16 06:40:06;;;;;;;304.17;294.93;;;;;;;;;;5031917;28;20206;-95
2023/09/16 06:42:32;;;;;;;308.90;299.40;;;;;;;;;;5032465;28;20274;-93
2023/09/16 06:44:58;;;;;;;320.77;310.87;;;;;;;;;;5027117;28;20192;-95
2023/09/16 06:47:26;;;;;;;319.40;309.70;;;;;;;;;;5029626;28;20203;-95
2023/09/16 06:49:56;;;;;;;328.15;318.25;;;;;;;;;;5032846;28;20295;-94
2023/09/16 06:52:38;;;;;;;324.05;314.02;;;;;;;;;;5038675;28;20267;-96
2023/09/16 06:55:05;;;;;;;341.02;330.65;;;;;;;;;;5034005;28;20194;-94
2023/09/16 06:57:31;;;;;;;345.42;335.10;;;;;;;;;;5018558;28;20190;-94
2023/09/16 06:59:58;;;;;;;375.52;364.00;;;;;;;;;;5033383;28;20255;-95
2023/09/16 07:02:25;;;;;;;393.15;381.08;;;;;;;;;;5027637;28;20189;-94
2023/09/16 07:04:52;;;;;;;381.67;370.13;;;;;;;;;;5030180;28;20184;-96
2023/09/16 07:07:20;;;;;;;384.80;372.98;;;;;;;;;;5028376;28;20189;-91
2023/09/16 07:09:46;;;;;;;398.08;385.75;;;;;;;;;;5025253;28;20211;-94
2023/09/16 07:12:12;;;;;;;398.30;385.70;;;;;;;;;;5029070;28;20193;-94
2023/09/16 07:14:40;;;;;;;426.15;412.67;;;;;;;;;;5027217;28;20287;-95
2023/09/16 07:17:07;;;;;;;444.38;430.40;;;;;;;;;;5026439;28;20193;-91
2023/09/16 07:19:33;;;;;;;417.02;404.10;;;;;;;;;;5033979;28;20216;-95
2023/09/16 07:22:01;;;;;;;429.08;415.63;;;;;;;;;;5031056;28;20216;-94
2023/09/16 07:24:27;;;;;;;406.02;393.33;;;;;;;;;;5030857;28;20269;-93
2023/09/16 07:26:54;;;;;;;401.65;388.88;;;;;;;;;;5031538;28;20239;-91
2023/09/16 07:29:22;;;;;;;415.92;402.88;;;;;;;;;;5029742;28;20200;-96
2023/09/16 07:31:48;;;;;;;398.52;386.17;;;;;;;;;;5031057;28;20295;-94
2023/09/16 07:34:15;;;;;;;419.23;406.08;;;;;;;;;;5031055;28;20180;-91
2023/09/16 07:36:42;;;;;;;419.55;406.35;;;;;;;;;;5029589;28;20181;-94
2023/09/16 07:39:08;;;;;;;438.25;424.58;;;;;;;;;;5013457;28;20202;-93
2023/09/16 07:41:34;;;;;;;431.88;418.35;;;;;;;;;;5028224;28;20195;-93
2023/09/16 07:44:00;;;;;;;452.10;437.38;;;;;;;;;;5027648;28;20586;-93
2023/09/16 07:46:27;;;;;;;451.13;436.83;;;;;;;;;;5028461;28;20181;-93
2023/09/16 07:48:53;;;;;;;455.10;440.50;;;;;;;;;;5025685;28;20222;-94
2023/09/16 07:51:19;;;;;;;422.20;408.83;;;;;;;;;;5028371;28;20181;-94
2023/09/16 07:53:45;;;;;;;428.70;415.40;;;;;;;;;;5027078;28;20201;-94
2023/09/16 07:56:11;;;;;;;422.05;408.85;;;;;;;;;;5026322;28;20212;-92
2023/09/16 07:58:37;;;;;;;437.83;424.08;;;;;;;;;;5024389;28;20205;-92
2023/09/16 08:01:03;;;;;;;436.85;423.23;;;;;;;;;;5025680;28;20253;-93
2023/09/16 08:03:31;;;;;;;442.95;429.08;;;;;;;;;;5022459;28;20240;-94
2023/09/16 08:05:57;;;;;;;456.63;442.10;;;;;;;;;;5008952;28;20249;-91
2023/09/16 08:08:23;;;;;;;436.42;422.55;;;;;;;;;;5014989;28;20344;-94
2023/09/16 08:10:51;;;;;;;473.45;458.42;;;;;;;;;;5015353;28;20189;-92
2023/09/16 08:13:18;;;;;;;468.25;453.27;;;;;;;;;;5018942;28;20213;-90
2023/09/16 08:15:44;;;;;;;462.65;448.13;;;;;;;;;;5023164;28;20209;-93
2023/09/16 08:18:10;;;;;;;493.20;477.25;;;;;;;;;;5023591;28;20213;-93
2023/09/16 08:20:36;;;;;;;486.33;470.45;;;;;;;;;;5021419;28;20182;-90
2023/09/16 08:23:02;;;;;;;466.83;452.13;;;;;;;;;;5017936;28;20205;-88
2023/09/16 08:25:28;;;;;;;499.30;482.95;;;;;;;;;;5019478;28;20187;-92
2023/09/16 08:27:54;;;;;;;469.75;454.58;;;;;;;;;;5019877;28;20189;-91
2023/09/16 08:30:21;;;;;;;518.08;500.83;;;;;;;;;;5017364;28;20178;-90
2023/09/16 08:32:47;;;;;;;497.50;481.50;;;;;;;;;;5019545;28;20292;-90
2023/09/16 08:35:13;;;;;;;506.75;490.40;;;;;;;;;;5019534;28;20185;-92
2023/09/16 08:37:39;;;;;;;517.90;500.80;;;;;;;;;;5003725;28;20204;-93
2023/09/16 08:40:05;;;;;;;547.95;529.67;;;;;;;;;;5020329;28;20189;-90
2023/09/16 08:42:39;;;;;;;591.78;570.83;;;;;;;;;;5012845;28;20187;-91
2023/09/16 08:45:06;;;;;;;596.53;575.72;;;;;;;;;;5015682;28;20184;-92
2023/09/16 08:47:40;;;;;;;629.10;606.65;;;;;;;;;;5019840;28;20178;-92
2023/09/16 08:50:10;;;;;;;624.05;601.80;;;;;;;;;;5018165;28;20208;-92
2023/09/16 08:52:56;;;;;;;671.63;646.25;;;;;;;;;;5019934;28;20196;-92
2023/09/16 08:55:22;;;;;;;653.85;629.67;;;;;;;;;;5019813;28;20251;-92
2023/09/16 08:57:48;;;;;;;721.30;692.92;;;;;;;;;;5020834;28;20193;-92
2023/09/16 09:00:15;;;;;;;741.40;710.55;;;;;;;;;;5033587;28;20196;-93
2023/09/16 09:02:41;;;;;;;926.88;880.00;;;;;;;;;;5025632;28;20608;-92
2023/09/16 09:05:08;;;;;;;806.53;771.13;;;;;;;;;;5015356;28;20202;-93
2023/09/16 09:07:36;;;;;;;1411.45;893.40;;;;;;;;;;5010350;28;20245;-94
2023/09/16 09:10:03;;;;;;;1999.90;999.90;;;;;;;;;;5018424;28;20193;-93
2023/09/16 09:12:29;;;;;;;1999.90;999.90;;;;;;;;;;5017872;28;20196;-91
2023/09/16 09:14:55;;;;;;;1999.90;999.90;;;;;;;;;;5018552;28;20659;-92
2023/09/16 09:17:22;;;;;;;1999.90;999.90;;;;;;;;;;5015806;28;20204;-89
2023/09/16 09:19:49;;;;;;;1999.90;999.90;;;;;;;;;;5013248;28;20281;-90
2023/09/16 09:22:15;;;;;;;1999.90;999.90;;;;;;;;;;5006790;28;20685;-91
2023/09/16 09:24:41;;;;;;;1999.90;999.90;;;;;;;;;;5011120;28;20229;-91
2023/09/16 09:27:07;;;;;;;1999.90;999.90;;;;;;;;;;5015918;28;20189;-91
2023/09/16 09:29:33;;;;;;;1999.90;999.90;;;;;;;;;;5016029;28;20209;-91
2023/09/16 09:32:00;;;;;;;1999.90;999.90;;;;;;;;;;5017103;28;20240;-91
2023/09/16 09:34:28;;;;;;;1999.90;999.90;;;;;;;;;;5017888;28;20196;-93
2023/09/16 09:36:54;;;;;;;1999.90;999.90;;;;;;;;;;5018835;28;20174;-90
2023/09/16 09:39:20;;;;;;;1999.90;999.90;;;;;;;;;;5018649;28;20677;-94
2023/09/16 09:41:49;;;;;;;1999.90;999.90;;;;;;;;;;5017016;28;20189;-91
2023/09/16 09:44:15;;;;;;;1999.90;999.90;;;;;;;;;;5017316;28;20224;-86
2023/09/16 09:46:41;;;;;;;1999.90;999.90;;;;;;;;;;5017419;28;20712;-85
2023/09/16 09:49:10;;;;;;;1999.90;999.90;;;;;;;;;;5017920;28;20297;-88
2023/09/16 09:51:38;;;;;;;1999.90;999.90;;;;;;;;;;5019266;28;20273;-86
2023/09/16 09:54:06;;;;;;;1999.90;999.90;;;;;;;;;;5019483;28;20177;-89
2023/09/16 09:56:32;;;;;;;1999.90;999.90;;;;;;;;;;5016501;28;20181;-88
2023/09/16 09:58:59;;;;;;;1999.90;999.90;;;;;;;;;;5018788;28;20209;-86
2023/09/16 10:01:30;;;;;;;1999.90;999.90;;;;;;;;;;5019222;28;20186;-87
2023/09/16 10:03:56;;;;;;;1999.90;999.90;;;;;;;;;;5020970;28;20213;-86
2023/09/16 10:06:22;;;;;;;1999.90;999.90;;;;;;;;;;5013796;28;20193;-86
2023/09/16 10:08:48;;;;;;;1999.90;999.90;;;;;;;;;;5018763;28;20210;-88
2023/09/16 10:11:14;;;;;;;1999.90;999.90;;;;;;;;;;5017977;28;20177;-88
2023/09/16 10:13:40;;;;;;;1999.90;999.90;;;;;;;;;;5017971;28;20185;-85
2023/09/16 10:16:07;;;;;;;1999.90;999.90;;;;;;;;;;5024658;28;20205;-85
2023/09/16 10:18:33;;;;;;;1999.90;999.90;;;;;;;;;;5025533;28;20273;-85
2023/09/16 10:20:59;;;;;;;1999.90;999.90;;;;;;;;;;5020289;28;20904;-85
2023/09/16 10:23:25;;;;;;;1999.90;999.90;;;;;;;;;;5019076;28;20213;-86
2023/09/16 10:25:51;;;;;;;1999.90;999.90;;;;;;;;;;5015510;28;20185;-85
2023/09/16 10:28:17;;;;;;;1999.90;999.90;;;;;;;;;;5028190;28;20802;-85
2023/09/16 10:30:45;;;;;;;1999.90;999.90;;;;;;;;;;5021659;28;20189;-86
2023/09/16 10:33:11;;;;;;;1999.90;999.90;;;;;;;;;;5023413;28;20186;-86
2023/09/16 10:35:39;;;;;;;1999.90;999.90;;;;;;;;;;5018793;28;20209;-86
2023/09/16 10:38:06;;;;;;;1999.90;999.90;;;;;;;;;;5018247;28;20209;-88
2023/09/16 10:40:32;;;;;;;1999.90;999.90;;;;;;;;;;5019752;28;20216;-88
2023/09/16 10:42:59;;;;;;;1999.90;999.90;;;;;;;;;;5009630;28;20213;-86
2023/09/16 10:45:25;;;;;;;1999.90;999.90;;;;;;;;;;5016034;28;20200;-85
2023/09/16 10:47:52;;;;;;;1999.90;999.90;;;;;;;;;;5022640;28;20181;-87
2023/09/16 10:50:18;;;;;;;1999.90;999.90;;;;;;;;;;5017150;28;20239;-85
2023/09/16 10:53:05;;;;;;;1999.90;999.90;;;;;;;;;;5016763;28;20182;-89
2023/09/16 10:55:43;;;;;;;1999.90;999.90;;;;;;;;;;5017517;28;20185;-90
2023/09/16 10:58:10;;;;;;;1999.90;999.90;;;;;;;;;;5016296;28;20204;-89
2023/09/16 11:00:39;;;;;;;1999.90;999.90;;;;;;;;;;5015653;28;20177;-89
2023/09/16 11:03:05;;;;;;;1999.90;999.90;;;;;;;;;;5021561;28;20733;-89
2023/09/16 11:05:32;;;;;;;1999.90;999.90;;;;;;;;;;5018583;28;20593;-89
2023/09/16 11:08:02;;;;;;;1999.90;999.90;;;;;;;;;;5027602;28;20209;-93
2023/09/16 11:10:28;;;;;;;1999.90;999.90;;;;;;;;;;5031722;28;20180;-95
2023/09/16 11:12:58;;;;;;;1999.90;999.90;;;;;;;;;;5032833;28;20189;-94
2023/09/16 11:15:31;;;;;;;1999.90;999.90;;;;;;;;;;5029178;28;20181;-93
2023/09/16 11:18:01;;;;;;;1999.90;999.90;;;;;;;;;;5028381;28;20208;-94
2023/09/16 11:20:40;;;;;;;1999.90;999.90;;;;;;;;;;5028488;28;20610;-94
2023/09/16 11:23:08;;;;;;;1999.90;999.90;;;;;;;;;;5016165;28;20214;-94
2023/09/16 11:25:54;;;;;;;1999.90;999.90;;;;;;;;;;5005935;28;20281;-94
2023/09/16 11:28:38;;;;;;;1999.90;999.90;;;;;;;;;;5010935;28;20220;-95
2023/09/16 11:31:04;;;;;;;1999.90;999.90;;;;;;;;;;5001799;28;20250;-94
2023/09/16 11:33:32;;;;;;;1999.90;999.90;;;;;;;;;;5022066;28;20179;-94
2023/09/16 11:36:20;;;;;;;1999.90;999.90;;;;;;;;;;5024767;28;20189;-93
2023/09/16 11:38:53;;;;;;;1999.90;999.90;;;;;;;;;;5022584;28;20215;-93
2023/09/16 11:41:19;;;;;;;1999.90;999.90;;;;;;;;;;5018957;28;20189;-91
2023/09/16 11:43:46;;;;;;;1999.90;999.90;;;;;;;;;;5018457;28;20194;-91
2023/09/16 11:46:13;;;;;;;1999.90;999.90;;;;;;;;;;5017288;28;20185;-93
2023/09/16 11:48:48;;;;;;;1999.90;999.90;;;;;;;;;;5015263;28;20213;-92
2023/09/16 11:51:15;;;;;;;1999.90;999.90;;;;;;;;;;5018051;28;20189;-91
2023/09/16 11:53:41;;;;;;;1999.90;999.90;;;;;;;;;;5020941;28;20186;-93
2023/09/16 11:56:07;;;;;;;1999.90;999.90;;;;;;;;;;5018715;28;20217;-88
2023/09/16 11:58:33;;;;;;;1999.90;999.90;;;;;;;;;;5019053;28;20709;-91
2023/09/16 12:01:00;;;;;;;1999.90;999.90;;;;;;;;;;5019468;28;20189;-88
2023/09/16 12:03:27;;;;;;;1999.90;999.90;;;;;;;;;;5020745;28;20271;-94
2023/09/16 12:05:56;;;;;;;1999.90;999.90;;;;;;;;;;5037541;28;20212;-95
2023/09/16 12:08:23;;;;;;;1999.90;999.90;;;;;;;;;;5049806;22;20257;-95
2023/09/16 12:10:51;;;;;;;1999.90;999.90;;;;;;;;;;5025770;23;20237;-92
2023/09/16 12:13:27;;;;;;;1999.90;999.90;;;;;;;;;;5023716;28;20181;-90
2023/09/16 12:15:54;;;;;;;1999.90;999.90;;;;;;;;;;5005127;28;20650;-91
2023/09/16 12:18:20;;;;;;;1999.90;999.90;;;;;;;;;;5027067;28;20200;-94
2023/09/16 12:20:46;;;;;;;1999.90;999.90;;;;;;;;;;5001853;28;20193;-94
2023/09/16 12:23:13;;;;;;;1999.90;999.90;;;;;;;;;;5025489;28;20225;-92
2023/09/16 12:25:42;;;;;;;1999.90;999.90;;;;;;;;;;5021929;28;20186;-91
2023/09/16 12:28:16;;;;;;;1999.90;999.90;;;;;;;;;;5026113;28;20210;-91
2023/09/16 12:30:43;;;;;;;1999.90;999.90;;;;;;;;;;5022833;28;20722;-93
2023/09/16 12:33:09;;;;;;;1999.90;999.90;;;;;;;;;;5019958;28;20281;-92
2023/09/16 12:35:39;;;;;;;1999.90;999.90;;;;;;;;;;5017297;28;20182;-89
2023/09/16 12:38:05;;;;;;;1999.90;999.90;;;;;;;;;;5018365;28;20205;-91
2023/09/16 12:40:31;;;;;;;1999.90;999.90;;;;;;;;;;5024707;28;20187;-90
2023/09/16 12:42:57;;;;;;;1999.90;999.90;;;;;;;;;;5016183;28;20209;-89
2023/09/16 12:45:24;;;;;;;1999.90;999.90;;;;;;;;;;5020785;28;20188;-91
2023/09/16 12:47:50;;;;;;;1999.90;999.90;;;;;;;;;;5025176;28;20193;-93
2023/09/16 12:50:16;;;;;;;1999.90;999.90;;;;;;;;;;5026649;28;20173;-94
2023/09/16 12:52:43;;;;;;;1999.90;999.90;;;;;;;;;;5031280;28;20189;-92
2023/09/16 12:55:12;;;;;;;1999.90;999.90;;;;;;;;;;5021373;28;20185;-90
2023/09/16 12:57:39;;;;;;;1999.90;999.90;;;;;;;;;;5016331;28;20182;-91
2023/09/16 13:00:08;;;;;;;1999.90;999.90;;;;;;;;;;5017688;28;20186;-90
2023/09/16 13:02:36;;;;;;;1999.90;999.90;;;;;;;;;;5018848;28;20237;-89
2023/09/16 13:05:18;;;;;;;1999.90;999.90;;;;;;;;;;5021566;28;20185;-91
2023/09/16 13:07:51;;;;;;;1999.90;999.90;;;;;;;;;;5022245;28;20196;-92
2023/09/16 13:10:18;;;;;;;1999.90;999.90;;;;;;;;;;5000376;28;20192;-90
2023/09/16 13:12:44;;;;;;;1999.90;999.90;;;;;;;;;;5025173;28;20198;-93
2023/09/16 13:15:17;;;;;;;1999.90;999.90;;;;;;;;;;5019389;28;20224;-89
2023/09/16 13:17:44;;;;;;;1999.90;999.90;;;;;;;;;;5023057;28;20261;-88
2023/09/16 13:20:17;;;;;;;1999.90;999.90;;;;;;;;;;5018701;28;20189;-90
2023/09/16 13:22:46;;;;;;;1999.90;999.90;;;;;;;;;;5017538;28;20178;-90
2023/09/16 13:25:28;;;;;;;1999.90;999.90;;;;;;;;;;5023462;28;20606;-92
2023/09/16 13:27:54;;;;;;;1999.90;999.90;;;;;;;;;;5013558;28;20208;-89
2023/09/16 13:30:21;;;;;;;1999.90;999.90;;;;;;;;;;5020386;28;20297;-89
2023/09/16 13:32:53;;;;;;;1999.90;999.90;;;;;;;;;;5019942;28;20229;-89
2023/09/16 13:35:20;;;;;;;1999.90;999.90;;;;;;;;;;5021664;28;20180;-87
2023/09/16 13:37:46;;;;;;;1999.90;999.90;;;;;;;;;;4999403;28;20199;-89
2023/09/16 13:40:16;;;;;;;1999.90;999.90;;;;;;;;;;5022262;28;20209;-88
2023/09/16 13:42:42;;;;;;;1999.90;999.90;;;;;;;;;;5014832;28;20267;-89
2023/09/16 13:45:09;;;;;;;1999.90;999.90;;;;;;;;;;5020337;28;20337;-85
2023/09/16 13:47:35;;;;;;;1999.90;999.90;;;;;;;;;;5015125;28;20178;-89
2023/09/16 13:50:02;;;;;;;1999.90;999.90;;;;;;;;;;5018406;28;20616;-88